Time;durP1;ratioP1;P1;durP2;ratioP2;P2;SDS_P1;SDS_P2;PMS_P1;PMS_P2;Temp;Humidity;BMP_temperature;BMP_pressure;BME280_temperature;BME280_humidity;BME280_pressure;Samples;Min_cycle;Max_cycle;Signal;HPM_P1;HPM_P2
2022/03/11 00:00:11;;;;;;;8.53;4.87;;;;;;;-2.06;63.39;95380.66;5074142;28;20614;-65
2022/03/11 00:02:37;;;;;;;7.00;4.50;;;;;;;-2.08;65.10;95348.28;5056345;28;20184;-63
2022/03/11 00:05:04;;;;;;;7.17;4.20;;;;;;;-2.41;64.34;95354.09;5073904;28;20249;-62
2022/03/11 00:07:30;;;;;;;7.27;4.10;;;;;;;-2.65;64.50;95335.56;5071076;22;20233;-64
2022/03/11 00:09:56;;;;;;;9.13;5.30;;;;;;;-2.66;65.58;95318.19;5054224;28;20568;-63
2022/03/11 00:12:21;;;;;;;6.27;4.43;;;;;;;-2.52;64.54;95335.31;5054585;28;20211;-63
2022/03/11 00:14:47;;;;;;;9.30;4.93;;;;;;;-2.47;64.86;95338.50;5054507;28;20657;-64
2022/03/11 00:17:12;;;;;;;6.83;4.00;;;;;;;-2.46;64.70;95330.19;5054228;28;20344;-65
2022/03/11 00:19:38;;;;;;;7.57;4.70;;;;;;;-2.31;65.21;95328.13;5053806;28;20312;-62
2022/03/11 00:22:03;;;;;;;6.50;4.73;;;;;;;-2.19;66.59;95287.19;5053796;28;20239;-64
2022/03/11 00:24:29;;;;;;;9.47;5.10;;;;;;;-2.01;65.02;95324.06;5052557;28;20180;-62
2022/03/11 00:26:54;;;;;;;7.53;4.20;;;;;;;-2.02;64.36;95348.13;5053312;28;20696;-63
2022/03/11 00:29:20;;;;;;;8.97;4.97;;;;;;;-2.14;64.00;95340.97;5053395;28;20275;-63
2022/03/11 00:31:45;;;;;;;9.67;5.40;;;;;;;-2.16;62.99;95375.06;5052627;28;20208;-63
2022/03/11 00:34:11;;;;;;;7.43;4.27;;;;;;;-2.48;63.96;95339.34;5052620;28;20209;-61
2022/03/11 00:36:37;;;;;;;10.30;4.47;;;;;;;-2.61;64.60;95323.91;5053433;28;20213;-64
2022/03/11 00:39:04;;;;;;;8.83;5.60;;;;;;;-2.77;65.31;95300.22;5053722;28;20205;-64
2022/03/11 00:41:29;;;;;;;8.83;5.60;;;;;;;-2.89;65.79;95283.09;5053823;28;20202;-63
2022/03/11 00:43:55;;;;;;;8.17;4.43;;;;;;;-2.70;65.13;95301.72;5053582;28;20174;-64
2022/03/11 00:46:21;;;;;;;5.63;4.63;;;;;;;-2.74;64.67;95317.56;5053705;28;20255;-63
2022/03/11 00:48:46;;;;;;;8.17;4.47;;;;;;;-2.98;64.34;95320.59;5052421;28;20182;-64
2022/03/11 00:51:12;;;;;;;5.57;4.00;;;;;;;-2.96;64.60;95313.91;5053127;28;20210;-61
2022/03/11 00:53:37;;;;;;;7.40;4.00;;;;;;;-3.04;64.08;95321.56;5051778;28;20180;-64
2022/03/11 00:56:03;;;;;;;7.37;4.53;;;;;;;-2.92;64.63;95315.47;5052927;28;20225;-63
2022/03/11 00:58:29;;;;;;;7.17;4.17;;;;;;;-2.95;64.77;95308.91;5051779;28;20201;-67
2022/03/11 01:00:54;;;;;;;6.30;4.03;;;;;;;-3.07;64.68;95314.16;5090791;22;20242;-63
2022/03/11 01:03:20;;;;;;;6.20;3.47;;;;;;;-3.16;64.96;95298.63;5055515;28;20180;-62
2022/03/11 01:05:45;;;;;;;6.60;4.10;;;;;;;-3.33;64.84;95303.16;5073338;28;20270;-63
2022/03/11 01:08:10;;;;;;;8.20;4.00;;;;;;;-3.24;64.59;95305.44;5072849;28;20177;-62
2022/03/11 01:10:36;;;;;;;8.83;4.73;;;;;;;-3.44;64.80;95301.72;5073282;28;20701;-65
2022/03/11 01:13:01;;;;;;;7.03;3.80;;;;;;;-3.62;64.94;95288.84;5072732;28;20173;-63
2022/03/11 01:15:27;;;;;;;4.60;3.50;;;;;;;-3.59;65.44;95287.09;5072829;28;20239;-61
2022/03/11 01:17:52;;;;;;;7.00;3.57;;;;;;;-3.66;65.78;95280.66;5055236;28;20272;-63
2022/03/11 01:20:18;;;;;;;9.13;4.13;;;;;;;-3.58;66.70;95260.59;5054730;28;20227;-62
2022/03/11 01:22:43;;;;;;;6.40;3.20;;;;;;;-3.56;66.44;95258.91;5054614;28;20184;-63
2022/03/11 01:25:09;;;;;;;5.10;3.30;;;;;;;-3.62;66.23;95279.72;5055076;28;20219;-63
2022/03/11 01:27:36;;;;;;;7.50;4.33;;;;;;;-3.64;66.40;95271.50;5072711;28;20273;-63
2022/03/11 01:30:07;;;;;;;6.13;4.37;;;;;;;-3.42;67.00;95249.50;5053965;28;20226;-62
2022/03/11 01:32:35;;;;;;;7.43;3.53;;;;;;;-3.17;66.41;95274.63;5072360;28;20669;-65
2022/03/11 01:35:01;;;;;;;6.07;3.53;;;;;;;-3.06;66.28;95277.69;5072571;28;20194;-62
2022/03/11 01:37:26;;;;;;;6.10;3.33;;;;;;;-3.09;65.89;95282.75;5072652;28;20634;-62
2022/03/11 01:39:52;;;;;;;6.57;4.00;;;;;;;-3.18;66.57;95268.00;5053973;28;20582;-62
2022/03/11 01:42:17;;;;;;;7.67;4.37;;;;;;;-3.23;65.97;95285.50;5072370;28;20176;-63
2022/03/11 01:45:01;;;;;;;8.57;4.20;;;;;;;-3.27;66.20;95286.41;5072389;28;20184;-63
2022/03/11 01:47:26;;;;;;;8.40;4.60;;;;;;;-3.31;66.27;95284.84;5072105;28;20646;-62
2022/03/11 01:49:52;;;;;;;10.10;4.50;;;;;;;-3.23;66.69;95263.13;5054473;28;20188;-63
2022/03/11 01:52:17;;;;;;;6.60;3.77;;;;;;;-3.26;67.45;95248.31;5054884;28;20179;-63
2022/03/11 01:54:43;;;;;;;9.80;4.03;;;;;;;-3.17;67.68;95244.81;5072396;28;20244;-62
2022/03/11 01:57:09;;;;;;;6.97;3.87;;;;;;;-3.17;66.53;95274.63;5078866;22;20695;-65
2022/03/11 01:59:35;;;;;;;5.30;3.43;;;;;;;-3.16;67.50;95247.25;5072335;28;20238;-62
2022/03/11 02:02:01;;;;;;;7.30;3.27;;;;;;;-3.16;66.87;95253.88;5072657;28;20240;-63
2022/03/11 02:04:26;;;;;;;5.80;3.53;;;;;;;-3.38;65.48;95297.44;5072504;28;20182;-63
2022/03/11 02:06:54;;;;;;;7.87;3.73;;;;;;;-3.69;65.39;95298.06;5078909;22;20228;-63
2022/03/11 02:09:19;;;;;;;7.60;4.00;;;;;;;-3.87;66.00;95281.06;5071941;28;20188;-62
2022/03/11 02:11:48;;;;;;;4.83;3.80;;;;;;;-4.16;67.41;95237.78;5072113;28;20211;-63
2022/03/11 02:14:14;;;;;;;9.37;3.80;;;;;;;-4.29;68.73;95209.91;5072736;28;20569;-63
2022/03/11 02:16:40;;;;;;;5.23;3.20;;;;;;;-4.58;69.27;95192.25;5053788;28;20296;-64
2022/03/11 02:19:07;;;;;;;5.57;3.47;;;;;;;-4.79;69.99;95181.09;5071659;28;20196;-65
2022/03/11 02:21:43;;;;;;;8.63;3.70;;;;;;;-4.98;70.86;95159.09;5053610;28;20713;-62
2022/03/11 02:24:09;;;;;;;5.23;3.30;;;;;;;-5.25;71.58;95130.66;5071666;28;20236;-62
2022/03/11 02:26:35;;;;;;;4.50;2.70;;;;;;;-5.33;73.83;95110.97;5078814;22;20246;-63
2022/03/11 02:29:03;;;;;;;6.73;3.57;;;;;;;-5.26;73.59;95124.91;5071778;28;20642;-62
2022/03/11 02:31:30;;;;;;;5.43;3.77;;;;;;;-5.26;73.86;95119.13;5054060;28;20213;-63
2022/03/11 02:33:57;;;;;;;6.03;3.20;;;;;;;-5.26;74.11;95114.16;5071942;28;20194;-62
2022/03/11 02:36:22;;;;;;;6.77;3.60;;;;;;;-5.30;73.71;95133.22;5072087;28;20211;-61
2022/03/11 02:38:48;;;;;;;5.47;3.53;;;;;;;-5.28;73.63;95130.72;5071297;28;20183;-64
2022/03/11 02:41:14;;;;;;;4.60;3.37;;;;;;;-5.27;73.53;95137.28;5072358;28;20586;-62
2022/03/11 02:43:41;;;;;;;7.93;3.47;;;;;;;-5.18;73.79;95150.38;5056588;23;20227;-64
2022/03/11 02:46:07;;;;;;;7.20;3.00;;;;;;;-5.25;72.44;95158.72;5051539;28;20215;-62
2022/03/11 02:48:33;;;;;;;6.33;3.23;;;;;;;-5.39;72.66;95149.88;5051361;28;20589;-64
2022/03/11 02:50:58;;;;;;;5.13;3.33;;;;;;;-5.29;73.16;95153.84;5051802;28;20603;-61
2022/03/11 02:53:24;;;;;;;6.43;3.60;;;;;;;-5.19;73.52;95150.38;5055306;28;20182;-62
2022/03/11 02:55:49;;;;;;;6.87;4.13;;;;;;;-5.46;73.68;95166.50;5055072;28;20199;-62
2022/03/11 02:58:15;;;;;;;6.27;3.43;;;;;;;-5.43;73.30;95139.22;5061687;23;20180;-62
2022/03/11 03:00:40;;;;;;;6.40;3.80;;;;;;;-5.28;73.68;95177.78;5074541;28;20227;-65
2022/03/11 03:03:06;;;;;;;5.00;3.20;;;;;;;-5.07;73.37;95174.13;5063980;23;20239;-62
2022/03/11 03:05:31;;;;;;;9.77;3.53;;;;;;;-4.89;72.33;95184.56;5075376;28;20245;-63
2022/03/11 03:07:57;;;;;;;5.97;3.70;;;;;;;-4.82;71.76;95195.16;5075623;28;20192;-63
2022/03/11 03:10:23;;;;;;;5.73;3.47;;;;;;;-4.58;72.12;95185.63;5057461;28;20751;-62
2022/03/11 03:12:49;;;;;;;5.47;3.17;;;;;;;-4.53;71.28;95201.28;5075330;28;20196;-64
2022/03/11 03:15:14;;;;;;;4.17;3.23;;;;;;;-4.48;69.99;95230.91;5075367;28;20204;-63
2022/03/11 03:17:40;;;;;;;5.23;3.13;;;;;;;-4.31;70.94;95209.94;5057294;28;20541;-63
2022/03/11 03:20:07;;;;;;;8.80;4.03;;;;;;;-4.24;71.50;95209.81;5074766;28;20217;-63
2022/03/11 03:22:34;;;;;;;4.37;3.37;;;;;;;-4.14;69.80;95241.84;5056840;28;20196;-65
2022/03/11 03:25:00;;;;;;;6.10;3.80;;;;;;;-4.20;70.24;95228.78;5083359;22;20180;-66
2022/03/11 03:27:25;;;;;;;13.60;4.07;;;;;;;-4.19;71.11;95208.06;5095078;28;20172;-65
2022/03/11 03:29:51;;;;;;;7.53;3.43;;;;;;;-4.33;70.46;95233.97;5095372;28;20180;-63
2022/03/11 03:32:16;;;;;;;8.13;4.27;;;;;;;-4.36;70.50;95216.63;5095206;28;20263;-63
2022/03/11 03:34:42;;;;;;;7.53;4.00;;;;;;;-4.38;70.60;95233.22;5095180;28;20198;-64
2022/03/11 03:37:10;;;;;;;7.90;4.10;;;;;;;-4.36;70.53;95221.59;5083309;22;20232;-62
2022/03/11 03:39:38;;;;;;;5.97;3.73;;;;;;;-4.35;71.07;95224.91;5074641;28;20262;-62
2022/03/11 03:42:04;;;;;;;6.17;3.90;;;;;;;-4.35;71.02;95225.72;5075049;28;20291;-62
2022/03/11 03:44:30;;;;;;;7.50;4.10;;;;;;;-4.37;70.91;95217.50;5056296;28;20263;-62
2022/03/11 03:46:55;;;;;;;5.73;4.50;;;;;;;-4.26;70.37;95235.47;5080923;22;20354;-65
2022/03/11 03:49:22;;;;;;;5.63;3.73;;;;;;;-4.37;70.98;95216.69;5074409;28;20187;-63
2022/03/11 03:51:47;;;;;;;6.77;4.10;;;;;;;-4.33;70.46;95221.56;5074183;28;20257;-62
2022/03/11 03:54:13;;;;;;;5.17;3.93;;;;;;;-4.50;70.84;95217.72;5074567;28;20189;-63
2022/03/11 03:56:41;;;;;;;6.43;3.90;;;;;;;-4.53;71.00;95212.84;5073999;28;20200;-64
2022/03/11 03:59:09;;;;;;;6.57;3.87;;;;;;;-4.57;71.47;95221.19;5074055;28;20265;-64
2022/03/11 04:01:36;;;;;;;17.60;4.37;;;;;;;-4.61;71.33;95209.69;5073779;28;20193;-62
2022/03/11 04:04:04;;;;;;;6.50;4.13;;;;;;;-4.48;71.35;95208.59;5073834;28;20165;-66
2022/03/11 04:06:30;;;;;;;7.33;4.20;;;;;;;-4.68;71.30;95218.88;5056823;28;20267;-62
2022/03/11 04:08:57;;;;;;;7.23;4.37;;;;;;;-4.54;72.06;95207.06;5056002;28;20212;-64
2022/03/11 04:11:31;;;;;;;7.93;4.10;;;;;;;-142.19;100.00;60415.03;5074162;28;20276;-62
2022/03/11 04:13:58;;;;;;;6.67;3.93;;;;;;;-4.44;71.53;95212.66;5073917;28;20619;-62
2022/03/11 04:16:24;;;;;;;7.23;3.93;;;;;;;-4.32;71.58;95227.31;5055863;28;20201;-64
2022/03/11 04:18:50;;;;;;;7.63;3.77;;;;;;;-4.57;69.56;95274.09;5073925;28;20236;-63
2022/03/11 04:21:16;;;;;;;7.63;4.13;;;;;;;-4.87;70.63;95247.31;5055587;28;20200;-65
2022/03/11 04:23:42;;;;;;;7.43;4.33;;;;;;;-5.04;70.95;95238.50;5055564;28;20221;-63
2022/03/11 04:26:08;;;;;;;7.33;3.67;;;;;;;-5.00;72.58;95197.97;5073906;28;20578;-63
2022/03/11 04:28:34;;;;;;;5.47;3.70;;;;;;;-5.00;72.26;95226.03;5073341;28;20561;-65
2022/03/11 04:30:59;;;;;;;7.30;3.73;;;;;;;-5.01;72.11;95213.69;5073856;28;20200;-63
2022/03/11 04:33:26;;;;;;;6.53;4.07;;;;;;;-5.05;71.82;95231.91;5055812;28;20180;-62
2022/03/11 04:35:51;;;;;;;6.67;4.00;;;;;;;-5.26;72.85;95209.13;5074487;28;20204;-62
2022/03/11 04:38:17;;;;;;;5.90;3.57;;;;;;;-5.40;72.98;95206.03;5073171;28;20731;-63
2022/03/11 04:40:43;;;;;;;5.30;3.40;;;;;;;-5.45;73.91;95187.94;5074439;28;20227;-63
2022/03/11 04:43:09;;;;;;;6.53;4.20;;;;;;;-5.37;74.29;95171.31;5073737;28;20183;-64
2022/03/11 04:45:34;;;;;;;6.93;4.47;;;;;;;-5.36;74.04;95187.81;5073640;28;20588;-63
2022/03/11 04:48:00;;;;;;;8.03;4.23;;;;;;;-5.42;74.01;95192.03;5055320;28;20194;-66
2022/03/11 04:50:26;;;;;;;8.07;4.03;;;;;;;-5.33;74.44;95185.28;5056203;28;20215;-64
2022/03/11 04:52:52;;;;;;;7.37;4.53;;;;;;;-5.22;74.06;95200.78;5098180;22;20729;-63
2022/03/11 04:55:18;;;;;;;6.73;4.07;;;;;;;-5.35;73.12;95215.84;5087551;28;20223;-65
2022/03/11 04:57:44;;;;;;;6.37;4.03;;;;;;;-5.45;73.88;95202.78;5080093;22;20263;-63
2022/03/11 05:00:11;;;;;;;7.20;4.17;;;;;;;-5.49;73.53;95213.59;5096214;22;20231;-63
2022/03/11 05:02:37;;;;;;;9.57;4.43;;;;;;;-5.63;74.41;95188.22;5055115;28;20568;-63
2022/03/11 05:05:07;;;;;;;6.50;3.70;;;;;;;-5.63;76.27;95170.06;5072956;28;20275;-64
2022/03/11 05:07:32;;;;;;;7.23;3.77;;;;;;;-5.66;76.11;95165.16;5072541;28;20218;-66
2022/03/11 05:09:58;;;;;;;6.43;3.93;;;;;;;-5.67;77.03;95149.50;5072763;28;20212;-63
2022/03/11 05:12:23;;;;;;;7.97;3.60;;;;;;;-5.49;75.81;95195.44;5078994;22;20289;-63
2022/03/11 05:14:52;;;;;;;8.50;4.63;;;;;;;-5.61;75.44;95216.22;5072211;28;20180;-64
2022/03/11 05:17:18;;;;;;;8.40;4.20;;;;;;;-5.63;75.13;95224.50;5073470;28;20194;-63
2022/03/11 05:19:44;;;;;;;7.37;4.20;;;;;;;-5.65;75.38;95203.91;5072792;28;20196;-64
2022/03/11 05:22:11;;;;;;;10.00;4.00;;;;;;;-5.55;75.87;95205.41;5072978;28;20188;-66
2022/03/11 05:24:37;;;;;;;9.23;4.33;;;;;;;-5.57;75.28;95236.81;5072546;28;20184;-63
2022/03/11 05:27:03;;;;;;;6.80;4.00;;;;;;;-5.49;75.74;95216.06;5072325;28;20276;-63
2022/03/11 05:29:30;;;;;;;8.33;4.40;;;;;;;-5.42;74.82;95232.47;5054593;28;20281;-65
2022/03/11 05:31:55;;;;;;;7.53;4.67;;;;;;;-5.29;74.20;95238.03;5072445;28;20204;-66
2022/03/11 05:34:21;;;;;;;9.10;4.27;;;;;;;-5.27;73.49;95266.91;5072129;28;20649;-65
2022/03/11 05:36:46;;;;;;;9.37;4.40;;;;;;;-5.43;73.85;95253.13;5054274;28;20200;-62
2022/03/11 05:39:12;;;;;;;5.87;4.07;;;;;;;-5.45;73.94;95237.47;5072287;28;20656;-66
2022/03/11 05:41:37;;;;;;;8.83;4.20;;;;;;;-5.37;74.88;95243.13;5072321;28;20687;-63
2022/03/11 05:44:03;;;;;;;8.83;4.43;;;;;;;-5.29;74.87;95247.97;5054399;28;20212;-67
2022/03/11 05:46:29;;;;;;;6.73;4.47;;;;;;;-5.33;74.59;95242.22;5072578;28;20642;-63
2022/03/11 05:48:54;;;;;;;7.97;4.57;;;;;;;-5.26;73.98;95250.41;5054269;28;20222;-64
2022/03/11 05:51:19;;;;;;;10.80;5.30;;;;;;;-5.09;75.22;95252.63;5072042;28;20211;-62
2022/03/11 05:53:51;;;;;;;10.17;4.47;;;;;;;-4.37;97.32;95340.72;5054581;28;20613;-62
2022/03/11 05:56:17;;;;;;;9.40;5.80;;;;;;;-4.06;95.33;95225.16;5072114;28;20307;-63
2022/03/11 05:58:42;;;;;;;8.73;5.03;;;;;;;-3.99;82.93;95425.25;5072145;28;20219;-68
2022/03/11 06:01:08;;;;;;;11.70;5.93;;;;;;;-4.08;79.40;95446.94;5054011;28;20304;-64
2022/03/11 06:03:34;;;;;;;8.10;5.40;;;;;;;-3.92;78.65;95441.69;5071879;28;20177;-64
2022/03/11 06:05:59;;;;;;;8.23;5.03;;;;;;;-3.77;79.02;95421.56;5071705;28;20604;-64
2022/03/11 06:08:24;;;;;;;8.13;5.00;;;;;;;-3.69;78.20;95428.88;5053721;28;20569;-63
2022/03/11 06:10:50;;;;;;;7.70;4.90;;;;;;;-3.56;76.94;95446.03;5053999;28;20204;-63
2022/03/11 06:13:16;;;;;;;12.60;5.63;;;;;;;-3.38;77.27;95416.72;5071815;28;20183;-66
2022/03/11 06:15:42;;;;;;;10.50;6.70;;;;;;;-3.14;77.21;95416.25;5084914;22;20223;-65
2022/03/11 06:18:09;;;;;;;12.37;7.40;;;;;;;-3.42;78.70;95374.56;5091551;28;20200;-63
2022/03/11 06:20:36;;;;;;;13.47;7.13;;;;;;;-3.55;80.74;95343.31;5091916;28;20246;-63
2022/03/11 06:23:01;;;;;;;12.07;7.30;;;;;;;-3.32;79.58;95374.34;5092165;28;20195;-66
2022/03/11 06:25:27;;;;;;;11.23;6.77;;;;;;;-3.25;79.40;95381.66;5092171;28;20665;-64
2022/03/11 06:27:52;;;;;;;13.00;8.03;;;;;;;-3.12;80.17;95354.88;5092079;28;20217;-66
2022/03/11 06:30:18;;;;;;;12.67;7.47;;;;;;;-2.80;79.17;95397.28;5092040;28;20196;-65
2022/03/11 06:32:45;;;;;;;12.57;7.93;;;;;;;-2.73;78.30;95406.25;5091682;28;20179;-64
2022/03/11 06:35:15;;;;;;;11.77;6.67;;;;;;;-3.06;79.43;95382.94;5096516;22;20211;-65
2022/03/11 06:37:42;;;;;;;12.77;7.00;;;;;;;-3.09;80.15;95369.75;5071704;28;20170;-64
2022/03/11 06:40:09;;;;;;;13.17;7.40;;;;;;;-3.15;79.63;95377.34;5071504;28;20624;-64
2022/03/11 06:42:39;;;;;;;18.77;7.30;;;;;;;-2.87;79.45;95383.38;5053392;28;20593;-65
2022/03/11 06:45:06;;;;;;;9.57;6.77;;;;;;;-2.53;78.88;95404.16;5071535;28;20210;-66
2022/03/11 06:47:33;;;;;;;12.00;6.93;;;;;;;-2.53;78.14;95413.28;5077887;22;20718;-66
2022/03/11 06:49:58;;;;;;;11.50;6.80;;;;;;;-2.14;77.81;95424.84;5071186;28;20257;-66
2022/03/11 06:52:24;;;;;;;10.07;6.57;;;;;;;-2.27;77.24;95434.25;5071305;28;20269;-65
2022/03/11 06:54:49;;;;;;;13.23;8.13;;;;;;;-2.21;77.06;95429.13;5053062;28;20184;-66
2022/03/11 06:57:16;;;;;;;13.17;6.57;;;;;;;-1.99;76.98;95432.75;5071229;28;20201;-65
2022/03/11 06:59:43;;;;;;;10.50;6.20;;;;;;;-1.80;76.79;95428.13;5071377;28;20226;-65
2022/03/11 07:02:09;;;;;;;9.23;5.97;;;;;;;-1.66;76.05;95455.19;5071617;28;20227;-66
2022/03/11 07:04:34;;;;;;;12.10;5.40;;;;;;;-0.41;100.00;95266.97;5036628;28;20222;-63
2022/03/11 07:07:00;;;;;;;13.20;7.50;;;;;;;2.88;100.00;95269.00;5053507;28;20323;-69
2022/03/11 07:09:26;;;;;;;7.50;4.90;;;;;;;2.15;100.00;95354.16;5115811;22;20236;-68
2022/03/11 07:11:57;;;;;;;7.57;4.77;;;;;;;1.64;89.76;95532.44;5083801;22;20362;-67
2022/03/11 07:14:23;;;;;;;8.83;4.80;;;;;;;1.55;84.67;95563.66;5077424;22;20225;-67
2022/03/11 07:16:52;;;;;;;8.03;5.30;;;;;;;1.30;75.88;95577.06;5070883;28;20201;-67
2022/03/11 07:19:18;;;;;;;10.50;6.60;;;;;;;1.08;68.84;95622.03;5070902;28;20202;-67
2022/03/11 07:21:43;;;;;;;9.03;5.50;;;;;;;0.41;69.05;95587.50;5070859;28;20197;-68
2022/03/11 07:24:09;;;;;;;6.47;4.93;;;;;;;0.49;68.38;95598.91;5071365;28;20243;-68
2022/03/11 07:26:34;;;;;;;12.37;6.13;;;;;;;-0.67;69.74;95522.41;5100694;22;20382;-67
2022/03/11 07:28:59;;;;;;;9.47;6.97;;;;;;;-0.94;69.57;95513.97;5053191;28;20191;-66
2022/03/11 07:31:25;;;;;;;9.30;5.80;;;;;;;-0.75;70.88;95483.53;5077362;22;20700;-66
2022/03/11 07:33:50;;;;;;;8.47;5.07;;;;;;;-0.95;71.21;95474.09;5070837;28;20186;-65
2022/03/11 07:36:16;;;;;;;8.80;5.37;;;;;;;-0.86;70.82;95477.16;5071150;28;20204;-64
2022/03/11 07:38:42;;;;;;;7.33;4.17;;;;;;;-0.96;70.71;95468.28;5074167;28;20214;-64
2022/03/11 07:41:10;;;;;;;6.37;4.03;;;;;;;-0.74;69.74;95485.16;5074988;28;20315;-62
2022/03/11 07:43:36;;;;;;;8.80;4.87;;;;;;;-0.60;70.93;95468.94;5057046;28;20179;-62
2022/03/11 07:46:02;;;;;;;8.67;5.17;;;;;;;-0.47;69.35;95506.84;5074937;28;20690;-63
2022/03/11 07:48:28;;;;;;;6.83;5.27;;;;;;;-0.83;70.59;95476.25;5056521;28;20716;-60
2022/03/11 07:50:53;;;;;;;10.40;5.60;;;;;;;-0.72;70.76;95459.28;5074594;28;20299;-62
2022/03/11 07:53:20;;;;;;;8.53;5.77;;;;;;;-0.57;71.58;95443.06;5056434;28;20286;-62
2022/03/11 07:55:46;;;;;;;8.50;5.17;;;;;;;-0.40;70.64;95474.16;5056503;28;20208;-62
2022/03/11 07:58:11;;;;;;;9.87;4.80;;;;;;;-0.24;69.05;95502.00;5074421;28;20601;-62
2022/03/11 08:00:41;;;;;;;9.60;5.27;;;;;;;-0.06;67.59;95544.75;5056437;28;20234;-62
2022/03/11 08:03:06;;;;;;;7.43;5.20;;;;;;;-0.15;67.54;95537.53;5074155;28;20279;-62
2022/03/11 08:05:32;;;;;;;6.93;5.03;;;;;;;0.03;67.32;95530.34;5080780;22;20229;-61
2022/03/11 08:07:58;;;;;;;8.57;4.37;;;;;;;-0.20;67.10;95539.34;5074220;28;20172;-62
2022/03/11 08:10:24;;;;;;;7.47;5.50;;;;;;;-0.13;66.39;95545.81;5074162;28;20196;-63
2022/03/11 08:12:50;;;;;;;8.07;4.60;;;;;;;0.12;66.29;95550.91;5074146;28;20208;-62
2022/03/11 08:15:17;;;;;;;9.23;4.77;;;;;;;-0.08;66.44;95543.97;5074195;28;20646;-63
2022/03/11 08:17:43;;;;;;;11.17;6.07;;;;;;;-0.09;67.54;95502.38;5074108;28;20375;-63
2022/03/11 08:20:10;;;;;;;7.07;5.17;;;;;;;-0.12;65.56;95546.59;5039544;28;20309;-63
2022/03/11 08:22:36;;;;;;;11.37;5.73;;;;;;;-0.10;67.21;95503.22;5073975;28;20188;-62
2022/03/11 08:25:03;;;;;;;7.30;4.23;;;;;;;0.10;65.30;95560.13;5074191;28;20770;-63
2022/03/11 08:27:28;;;;;;;6.83;4.40;;;;;;;0.47;65.52;95552.28;5055725;28;20314;-62
2022/03/11 08:29:54;;;;;;;9.27;4.83;;;;;;;0.67;63.58;95602.50;5074254;28;20645;-61
2022/03/11 08:32:19;;;;;;;6.23;3.77;;;;;;;0.56;60.70;95655.38;5073827;28;20259;-61
2022/03/11 08:34:45;;;;;;;4.80;3.50;;;;;;;0.18;63.07;95578.22;5055490;28;20562;-61
2022/03/11 08:37:10;;;;;;;7.33;4.27;;;;;;;0.48;62.93;95588.94;5073445;28;20213;-61
2022/03/11 08:39:36;;;;;;;7.73;4.47;;;;;;;0.13;60.76;95626.69;5074486;28;20215;-62
2022/03/11 08:42:03;;;;;;;6.77;4.00;;;;;;;-0.37;59.76;95650.56;5073534;28;20197;-62
2022/03/11 08:44:28;;;;;;;6.40;4.03;;;;;;;-0.54;60.78;95591.09;5053134;28;20187;-62
2022/03/11 08:46:54;;;;;;;5.30;3.50;;;;;;;-0.71;61.39;95570.75;5053206;28;20192;-62
2022/03/11 08:49:19;;;;;;;6.00;4.33;;;;;;;-0.81;61.15;95586.00;5052468;28;20183;-61
2022/03/11 08:51:45;;;;;;;6.37;4.53;;;;;;;-0.34;61.09;95576.38;5052938;28;20200;-61
2022/03/11 08:54:10;;;;;;;6.77;4.30;;;;;;;-0.57;61.68;95572.88;5053424;28;20188;-61
2022/03/11 08:56:38;;;;;;;4.97;3.87;;;;;;;-0.30;60.79;95587.09;5034943;28;20200;-61
2022/03/11 08:59:05;;;;;;;7.27;4.83;;;;;;;-0.16;61.90;95573.34;5053014;28;20207;-62
2022/03/11 09:01:30;;;;;;;6.37;4.37;;;;;;;-0.07;62.00;95563.13;5052839;28;20197;-62
2022/03/11 09:03:56;;;;;;;8.60;5.20;;;;;;;0.21;60.17;95594.78;5053092;28;20207;-62
2022/03/11 09:06:22;;;;;;;7.83;4.93;;;;;;;0.06;59.29;95632.72;5052937;28;20200;-67
2022/03/11 09:08:47;;;;;;;6.17;4.80;;;;;;;0.80;58.08;95652.13;5053143;28;20582;-62
2022/03/11 09:11:13;;;;;;;6.97;4.87;;;;;;;1.19;56.94;95675.06;5035150;28;20207;-62
2022/03/11 09:13:38;;;;;;;8.43;5.17;;;;;;;1.82;55.46;95698.91;5038026;23;20249;-61
2022/03/11 09:16:05;;;;;;;7.73;4.87;;;;;;;2.36;55.69;95686.91;5032673;28;20279;-63
2022/03/11 09:18:30;;;;;;;7.03;5.10;;;;;;;2.78;52.07;95740.56;5032502;28;20186;-63
2022/03/11 09:20:55;;;;;;;7.27;4.70;;;;;;;3.13;51.92;95679.72;5032633;28;20692;-62
2022/03/11 09:23:21;;;;;;;6.20;4.50;;;;;;;3.43;51.31;95594.78;5032676;28;20182;-62
2022/03/11 09:25:47;;;;;;;8.43;4.60;;;;;;;3.63;48.11;95629.94;5014741;28;20205;-62
2022/03/11 09:28:12;;;;;;;6.53;4.63;;;;;;;3.62;47.51;95635.03;5031237;28;20240;-62
2022/03/11 09:30:38;;;;;;;8.43;4.83;;;;;;;3.42;48.20;95601.50;5032557;28;20345;-62
2022/03/11 09:33:04;;;;;;;8.63;5.27;;;;;;;3.15;48.47;95577.50;5032993;28;20635;-63
2022/03/11 09:35:29;;;;;;;7.03;4.93;;;;;;;3.07;48.23;95579.50;5014824;28;20212;-63
2022/03/11 09:37:55;;;;;;;10.13;5.00;;;;;;;3.00;48.90;95578.16;5032857;28;20196;-62
2022/03/11 09:40:20;;;;;;;7.33;4.87;;;;;;;2.58;49.20;95564.78;5055380;22;20256;-62
2022/03/11 09:42:46;;;;;;;6.63;4.80;;;;;;;2.62;49.13;95538.69;5032022;28;20185;-63
2022/03/11 09:45:12;;;;;;;6.27;4.80;;;;;;;2.36;49.40;95524.66;5030831;28;20614;-62
2022/03/11 09:47:39;;;;;;;7.70;4.87;;;;;;;2.32;52.16;95477.19;5032338;28;20183;-62
2022/03/11 09:50:05;;;;;;;11.77;5.77;;;;;;;2.66;50.67;95512.59;5032604;28;20356;-62
2022/03/11 09:52:33;;;;;;;9.67;5.47;;;;;;;3.01;50.98;95506.16;5050784;23;20233;-62
2022/03/11 09:54:59;;;;;;;8.50;4.93;;;;;;;2.85;50.23;95527.75;5052124;28;20210;-62
2022/03/11 09:57:27;;;;;;;6.80;4.67;;;;;;;2.12;50.11;95515.56;5058944;23;20651;-62
2022/03/11 09:59:53;;;;;;;8.97;5.10;;;;;;;1.97;52.15;95468.53;5051435;28;20208;-62
2022/03/11 10:02:18;;;;;;;7.20;4.63;;;;;;;1.84;52.29;95457.34;5033971;28;20271;-62
2022/03/11 10:04:46;;;;;;;7.13;4.50;;;;;;;1.90;53.01;95446.28;5051579;28;20185;-62
2022/03/11 10:07:29;;;;;;;8.73;5.40;;;;;;;1.94;53.99;95436.03;5051996;28;20601;-62
2022/03/11 10:09:56;;;;;;;9.20;4.83;;;;;;;2.44;51.63;95484.25;5051711;28;20188;-62
2022/03/11 10:12:24;;;;;;;12.43;5.10;;;;;;;2.61;52.16;95474.31;5052006;28;20261;-61
2022/03/11 10:15:01;;;;;;;7.90;4.23;;;;;;;2.64;52.67;95458.31;5051483;28;20201;-62
2022/03/11 10:17:37;;;;;;;6.63;4.57;;;;;;;2.69;51.00;95504.16;5051640;28;20678;-62
2022/03/11 10:20:07;;;;;;;5.57;4.00;;;;;;;2.71;49.00;95545.06;5051739;28;20671;-63
2022/03/11 10:22:34;;;;;;;7.77;4.77;;;;;;;2.24;48.40;95532.66;5051907;28;20230;-62
2022/03/11 10:25:13;;;;;;;6.37;4.70;;;;;;;2.26;48.65;95540.16;5033591;28;20204;-62
2022/03/11 10:28:03;;;;;;;4.87;3.70;;;;;;;2.03;50.18;95490.03;5052119;28;20292;-62
2022/03/11 10:30:31;;;;;;;8.93;4.30;;;;;;;2.33;49.22;95497.19;5034035;28;20585;-62
2022/03/11 10:32:59;;;;;;;7.03;4.10;;;;;;;2.49;48.34;95519.97;5052142;28;20190;-62
2022/03/11 10:35:44;;;;;;;5.47;3.70;;;;;;;2.34;49.14;95515.56;5047510;23;20229;-61
2022/03/11 10:38:19;;;;;;;9.77;4.37;;;;;;;2.37;51.31;95456.06;5051124;28;20611;-62
2022/03/11 10:40:58;;;;;;;7.63;4.70;;;;;;;2.43;52.15;95440.75;5052309;28;20335;-61
2022/03/11 10:43:29;;;;;;;7.97;4.07;;;;;;;2.24;50.92;95479.19;5051684;28;20186;-62
2022/03/11 10:45:57;;;;;;;5.97;4.43;;;;;;;2.77;50.57;95480.34;5050952;28;20213;-61
2022/03/11 10:48:48;;;;;;;6.00;4.03;;;;;;;2.95;49.13;95511.44;5051703;28;20177;-61
2022/03/11 10:51:24;;;;;;;6.57;3.60;;;;;;;2.54;48.02;95531.47;5051567;28;20594;-62
2022/03/11 10:53:51;;;;;;;5.37;3.90;;;;;;;2.14;49.13;95497.97;5051667;28;20173;-62
2022/03/11 10:56:36;;;;;;;5.83;3.90;;;;;;;1.92;46.00;95568.16;5051241;28;20224;-61
2022/03/11 10:59:06;;;;;;;4.73;3.70;;;;;;;1.88;46.12;95545.78;5049615;28;20284;-62
2022/03/11 11:01:42;;;;;;;5.37;3.67;;;;;;;1.76;47.87;95509.44;5051665;28;20208;-61
2022/03/11 11:04:10;;;;;;;4.73;3.23;;;;;;;1.64;47.86;95492.34;5051140;28;20268;-62
2022/03/11 11:06:37;;;;;;;7.20;4.00;;;;;;;1.64;48.65;95488.16;5050134;28;20560;-61
2022/03/11 11:09:05;;;;;;;5.83;3.53;;;;;;;1.15;48.47;95488.28;5050415;28;20635;-63
2022/03/11 11:11:32;;;;;;;6.00;4.20;;;;;;;1.37;49.05;95478.34;5051119;28;20198;-63
2022/03/11 11:13:59;;;;;;;6.50;3.63;;;;;;;1.43;47.83;95490.63;5053196;28;20186;-62
2022/03/11 11:16:28;;;;;;;5.13;3.67;;;;;;;1.38;48.01;95485.78;5054660;28;20201;-62
2022/03/11 11:18:57;;;;;;;5.27;3.93;;;;;;;1.46;48.26;95468.78;5053248;28;20169;-63
2022/03/11 11:21:24;;;;;;;5.90;3.93;;;;;;;1.61;47.05;95493.28;5053222;28;20745;-63
2022/03/11 11:23:54;;;;;;;5.43;4.13;;;;;;;1.34;47.61;95495.97;5053145;28;20173;-63
2022/03/11 11:26:23;;;;;;;4.87;3.60;;;;;;;1.51;47.72;95486.16;5053255;28;20201;-63
2022/03/11 11:28:54;;;;;;;4.87;4.13;;;;;;;1.78;47.12;95484.34;5054885;28;20184;-63
2022/03/11 11:31:21;;;;;;;7.23;4.20;;;;;;;2.04;45.87;95525.06;5054742;28;20285;-63